createdAt,value
2022-11-28T00:01:24.754Z,32.83
2022-11-28T00:03:51.728Z,31.08
2022-11-28T00:06:18.570Z,30.60
2022-11-28T00:08:45.321Z,27.35
2022-11-28T00:11:13.801Z,31.40
2022-11-28T00:13:41.272Z,32.80
2022-11-28T00:16:09.776Z,31.30
2022-11-28T00:18:36.379Z,36.03
2022-11-28T00:21:09.302Z,30.58
2022-11-28T00:23:36.663Z,34.92
2022-11-28T00:26:07.875Z,29.10
2022-11-28T00:28:34.433Z,30.60
2022-11-28T00:31:01.061Z,32.22
2022-11-28T00:33:27.972Z,35.15
2022-11-28T00:36:02.924Z,33.30
2022-11-28T00:38:29.898Z,32.00
2022-11-28T00:41:07.080Z,32.30
2022-11-28T00:43:34.394Z,37.83
2022-11-28T00:46:00.892Z,29.90
2022-11-28T00:48:27.453Z,29.13
2022-11-28T00:50:54.944Z,34.60
2022-11-28T00:53:21.793Z,31.80
2022-11-28T00:55:48.191Z,35.33
2022-11-28T00:58:14.622Z,30.67
2022-11-28T01:00:41.174Z,30.15
2022-11-28T01:03:07.740Z,31.05
2022-11-28T01:05:40.459Z,29.85
2022-11-28T01:08:06.912Z,33.63
2022-11-28T01:10:33.432Z,35.47
2022-11-28T01:12:59.850Z,34.58
2022-11-28T01:15:26.359Z,36.75
2022-11-28T01:17:52.797Z,35.10
2022-11-28T01:20:19.289Z,36.50
2022-11-28T01:22:45.908Z,30.63
2022-11-28T01:25:12.325Z,43.17
2022-11-28T01:27:38.775Z,33.00
2022-11-28T01:30:06.138Z,33.17
2022-11-28T01:32:32.535Z,33.78
2022-11-28T01:34:58.988Z,35.80
2022-11-28T01:37:25.459Z,36.10
2022-11-28T01:39:51.886Z,38.05
2022-11-28T01:42:20.140Z,36.10
2022-11-28T01:44:49.574Z,33.72
2022-11-28T01:47:21.092Z,38.63
2022-11-28T01:52:17.262Z,33.13
2022-11-28T01:54:48.819Z,31.30
2022-11-28T01:59:51.228Z,34.47
2022-11-28T02:02:30.064Z,35.15
2022-11-28T02:04:56.703Z,32.20
2022-11-28T02:07:23.646Z,34.40
2022-11-28T02:09:50.105Z,30.10
2022-11-28T02:12:59.896Z,33.78
2022-11-28T02:16:05.482Z,39.25
2022-11-28T02:19:08.449Z,35.20
2022-11-28T02:22:02.683Z,34.35
2022-11-28T02:24:41.275Z,34.42
2022-11-28T02:27:25.379Z,35.58
2022-11-28T02:30:14.760Z,28.48
2022-11-28T02:32:52.773Z,33.08
2022-11-28T02:35:54.832Z,37.03
2022-11-28T02:38:47.252Z,34.22
2022-11-28T02:41:28.656Z,31.05
2022-11-28T02:44:04.437Z,30.75
2022-11-28T02:46:52.912Z,28.33
2022-11-28T02:49:54.438Z,32.28
2022-11-28T02:52:31.733Z,34.17
2022-11-28T02:54:59.705Z,32.28
2022-11-28T02:57:37.984Z,33.42
2022-11-28T03:00:32.426Z,38.33
2022-11-28T03:03:01.625Z,29.10
2022-11-28T03:05:55.816Z,28.33
2022-11-28T03:08:28.087Z,35.10
2022-11-28T03:11:18.311Z,28.20
2022-11-28T03:14:05.525Z,30.50
2022-11-28T03:16:48.991Z,27.88
2022-11-28T03:19:32.946Z,30.83
2022-11-28T03:22:28.574Z,29.95
2022-11-28T03:25:03.285Z,29.20
2022-11-28T03:27:42.301Z,30.52
2022-11-28T03:30:17.014Z,28.42
2022-11-28T03:32:46.076Z,34.65
2022-11-28T03:35:17.160Z,28.77
2022-11-28T03:37:54.179Z,28.13
2022-11-28T03:40:33.484Z,30.50
2022-11-28T03:43:09.705Z,31.40
2022-11-28T03:45:40.744Z,27.52
2022-11-28T03:48:15.749Z,24.83
2022-11-28T03:50:46.962Z,30.67
2022-11-28T03:53:20.861Z,36.67
2022-11-28T03:56:08.150Z,33.53
2022-11-28T03:58:39.941Z,33.85
2022-11-28T04:01:23.617Z,34.78
2022-11-28T04:03:55.890Z,31.95
2022-11-28T04:06:33.578Z,38.50
2022-11-28T04:09:14.191Z,34.80
2022-11-28T04:11:56.421Z,23.85
2022-11-28T04:14:34.232Z,32.28
2022-11-28T04:17:14.200Z,34.38
2022-11-28T04:19:49.837Z,33.53
2022-11-28T04:22:30.944Z,34.50
2022-11-28T04:25:12.661Z,36.03
2022-11-28T04:30:09.861Z,33.30
2022-11-28T04:32:40.301Z,34.83
2022-11-28T04:35:12.763Z,31.20
2022-11-28T04:37:42.101Z,36.20
2022-11-28T04:40:12.343Z,37.03
2022-11-28T04:42:53.128Z,37.08
2022-11-28T04:45:26.516Z,36.83
2022-11-28T04:47:53.270Z,34.97
2022-11-28T04:50:22.128Z,36.08
2022-11-28T04:53:14.431Z,38.05
2022-11-28T04:55:47.393Z,35.75
2022-11-28T04:58:30.915Z,41.00
2022-11-28T05:00:58.842Z,34.10
2022-11-28T05:03:29.405Z,36.58
2022-11-28T05:05:55.923Z,31.42
2022-11-28T05:08:22.467Z,37.45
2022-11-28T05:10:49.018Z,29.95
2022-11-28T05:13:15.618Z,33.47
2022-11-28T05:15:42.074Z,32.50
2022-11-28T05:18:09.273Z,31.83
2022-11-28T05:20:37.532Z,33.45
2022-11-28T05:23:04.293Z,38.08
2022-11-28T05:25:30.719Z,30.48
2022-11-28T05:27:57.341Z,35.20
2022-11-28T05:30:23.741Z,33.28
2022-11-28T05:32:50.193Z,36.28
2022-11-28T05:35:16.774Z,30.25
2022-11-28T05:37:43.221Z,36.05
2022-11-28T05:40:09.867Z,37.97
2022-11-28T05:42:36.783Z,34.83
2022-11-28T05:45:05.187Z,36.10
2022-11-28T05:47:33.319Z,40.38
2022-11-28T05:49:59.884Z,32.80
2022-11-28T05:52:29.658Z,32.00
2022-11-28T05:54:56.191Z,31.67
2022-11-28T05:57:22.658Z,34.60
2022-11-28T05:59:49.099Z,34.08
2022-11-28T06:02:15.645Z,37.53
2022-11-28T06:04:42.263Z,37.70
2022-11-28T06:07:08.895Z,36.05
2022-11-28T06:09:35.373Z,36.92
2022-11-28T06:12:02.005Z,38.15
2022-11-28T06:14:28.597Z,36.45
2022-11-28T06:16:55.083Z,33.85
2022-11-28T06:19:21.572Z,32.58
2022-11-28T06:21:50.349Z,40.90
2022-11-28T06:24:16.818Z,37.00
2022-11-28T06:26:43.384Z,37.30
2022-11-28T06:29:09.958Z,36.15
2022-11-28T06:31:36.571Z,36.05
2022-11-28T06:34:03.128Z,42.10
2022-11-28T06:36:30.656Z,35.45
2022-11-28T06:38:57.502Z,35.25
2022-11-28T06:41:23.971Z,35.55
2022-11-28T06:43:50.693Z,41.47
2022-11-28T06:46:20.354Z,32.63
2022-11-28T06:48:48.255Z,30.85
2022-11-28T06:51:15.680Z,33.65
2022-11-28T06:53:42.714Z,34.90
2022-11-28T06:56:14.240Z,37.08
2022-11-28T07:01:13.987Z,42.90
2022-11-28T07:03:41.646Z,37.17
2022-11-28T07:06:12.546Z,41.67
2022-11-28T07:08:39.622Z,36.45
2022-11-28T07:11:16.035Z,36.85
2022-11-28T07:13:45.858Z,38.55
2022-11-28T07:16:31.666Z,33.90
2022-11-28T07:18:59.631Z,40.58
2022-11-28T07:21:27.194Z,36.95
2022-11-28T07:23:54.117Z,38.95
2022-11-28T07:26:22.078Z,41.92
2022-11-28T07:28:51.184Z,38.25
2022-11-28T07:31:21.045Z,41.15
2022-11-28T07:33:53.029Z,41.65
2022-11-28T07:36:22.872Z,39.63
2022-11-28T07:38:51.533Z,45.08
2022-11-28T07:41:22.504Z,40.85
2022-11-28T07:43:55.150Z,41.38
2022-11-28T07:46:22.056Z,40.28
2022-11-28T07:48:49.489Z,41.13
2022-11-28T07:51:22.477Z,46.78
2022-11-28T07:53:57.950Z,39.67
2022-11-28T07:56:39.466Z,43.13
2022-11-28T07:59:14.666Z,42.95
2022-11-28T08:01:41.282Z,47.50
2022-11-28T08:04:09.719Z,46.63
2022-11-28T08:06:41.744Z,41.00
2022-11-28T08:09:14.073Z,41.35
2022-11-28T08:11:52.680Z,40.25
2022-11-28T08:14:20.530Z,44.53
2022-11-28T08:16:47.441Z,50.38
2022-11-28T08:19:14.666Z,46.20
2022-11-28T08:21:41.834Z,41.50
2022-11-28T08:24:09.135Z,51.72
2022-11-28T08:26:36.732Z,44.60
2022-11-28T08:29:04.150Z,49.15
2022-11-28T08:31:34.188Z,46.22
2022-11-28T08:34:04.107Z,41.80
2022-11-28T08:36:31.002Z,41.38
2022-11-28T08:39:23.953Z,54.28
2022-11-28T08:41:49.968Z,41.50
2022-11-28T08:44:16.924Z,41.90
2022-11-28T08:46:43.717Z,41.00
2022-11-28T08:49:10.419Z,48.35
2022-11-28T08:51:37.323Z,44.70
2022-11-28T08:54:06.428Z,43.30
2022-11-28T08:56:34.606Z,41.47
2022-11-28T08:59:11.045Z,46.33
2022-11-28T09:01:37.788Z,46.50
2022-11-28T09:04:05.018Z,40.13
2022-11-28T09:06:31.824Z,41.92
2022-11-28T09:08:58.924Z,42.20
2022-11-28T09:11:28.801Z,44.70
2022-11-28T09:13:55.904Z,41.15
2022-11-28T09:16:22.714Z,46.25
2022-11-28T09:18:49.579Z,47.05
2022-11-28T09:21:16.566Z,42.05
2022-11-28T09:23:44.809Z,43.72
2022-11-28T09:26:17.949Z,44.58
2022-11-28T09:28:45.314Z,47.30
2022-11-28T09:31:16.569Z,46.42
2022-11-28T09:33:43.760Z,48.72
2022-11-28T09:36:13.112Z,42.67
2022-11-28T09:38:39.990Z,44.83
2022-11-28T09:41:31.985Z,44.53
2022-11-28T09:44:03.280Z,39.97
2022-11-28T09:46:34.297Z,45.85
2022-11-28T09:49:04.842Z,48.05
2022-11-28T09:51:43.337Z,47.70
2022-11-28T09:54:33.960Z,43.28
2022-11-28T09:57:12.920Z,44.58
2022-11-28T09:59:41.098Z,45.67
2022-11-28T10:02:14.134Z,48.20
2022-11-28T10:04:59.166Z,51.55
2022-11-28T10:07:56.969Z,46.97
2022-11-28T10:10:40.503Z,51.33
2022-11-28T10:13:41.207Z,50.47
2022-11-28T10:16:30.382Z,46.95
2022-11-28T10:19:06.055Z,45.53
2022-11-28T10:22:21.604Z,57.83
2022-11-28T10:24:54.535Z,46.22
2022-11-28T10:27:38.114Z,48.55
2022-11-28T10:30:19.652Z,53.17
2022-11-28T10:32:57.515Z,56.95
2022-11-28T10:35:29.669Z,54.10
2022-11-28T10:37:56.633Z,52.63
2022-11-28T10:41:23.841Z,48.42
2022-11-28T10:44:19.970Z,48.47
2022-11-28T10:47:12.070Z,49.25
2022-11-28T10:49:54.281Z,53.30
2022-11-28T10:52:31.454Z,46.45
2022-11-28T10:55:11.738Z,57.35
2022-11-28T10:58:03.703Z,52.40
2022-11-28T11:00:31.029Z,59.40
2022-11-28T11:03:02.429Z,50.42
2022-11-28T11:05:37.092Z,50.92
2022-11-28T11:08:25.250Z,51.95
2022-11-28T11:11:23.777Z,58.40
2022-11-28T11:13:56.448Z,53.90
2022-11-28T11:16:23.787Z,48.30
2022-11-28T11:18:54.779Z,49.00
2022-11-28T11:21:24.562Z,32.88
2022-11-28T11:24:11.504Z,69.50
2022-11-28T11:26:40.970Z,52.38
2022-11-28T11:29:21.948Z,48.65
2022-11-28T11:31:53.491Z,46.60
2022-11-28T11:34:23.987Z,46.65
2022-11-28T11:36:51.670Z,55.83
2022-11-28T11:39:25.489Z,46.50
2022-11-28T11:42:11.931Z,44.28
2022-11-28T11:44:38.644Z,49.90
2022-11-28T11:47:08.923Z,45.55
2022-11-28T11:49:44.780Z,44.70
2022-11-28T11:52:12.737Z,40.83
2022-11-28T11:54:52.360Z,42.30
2022-11-28T11:57:33.537Z,45.80
2022-11-28T12:00:27.027Z,45.97
2022-11-28T12:02:58.476Z,45.95
2022-11-28T12:05:41.808Z,47.05
2022-11-28T12:08:40.750Z,42.08
2022-11-28T12:11:23.402Z,46.75
2022-11-28T12:13:51.558Z,44.88
2022-11-28T12:16:21.652Z,46.60
2022-11-28T12:18:57.925Z,43.80
2022-11-28T12:21:33.675Z,43.33
2022-11-28T12:24:14.339Z,41.55
2022-11-28T12:26:59.023Z,46.95
2022-11-28T12:29:40.558Z,42.88
2022-11-28T12:32:27.323Z,39.22
2022-11-28T12:35:14.147Z,38.28
2022-11-28T12:38:13.828Z,39.83
2022-11-28T12:40:55.260Z,39.13
2022-11-28T12:43:43.421Z,37.53
2022-11-28T12:46:19.357Z,35.83
2022-11-28T12:48:53.548Z,42.08
2022-11-28T12:51:26.453Z,38.28
2022-11-28T12:54:12.846Z,36.75
2022-11-28T12:56:58.220Z,36.95
2022-11-28T12:59:31.934Z,32.60
2022-11-28T13:02:12.458Z,38.90
2022-11-28T13:05:05.582Z,34.80
2022-11-28T13:07:54.630Z,38.00
2022-11-28T13:10:29.244Z,39.78
2022-11-28T13:13:20.124Z,45.25
2022-11-28T13:16:08.096Z,38.45
2022-11-28T13:18:40.843Z,37.03
2022-11-28T13:21:38.778Z,36.35
2022-11-28T13:24:11.711Z,40.00
2022-11-28T13:26:47.617Z,41.80
2022-11-28T13:29:20.010Z,47.53
2022-11-28T13:31:51.442Z,40.08
2022-11-28T13:34:20.924Z,40.58
2022-11-28T13:39:50.734Z,38.20
2022-11-28T13:45:32.952Z,37.85
2022-11-28T13:48:01.092Z,40.67
2022-11-28T13:50:36.787Z,42.90
2022-11-28T13:53:06.311Z,37.58
2022-11-28T13:55:50.279Z,42.20
2022-11-28T13:58:25.709Z,48.58
2022-11-28T14:01:13.108Z,42.58
2022-11-28T14:03:58.852Z,47.65
2022-11-28T14:06:28.526Z,42.22
2022-11-28T14:09:16.135Z,48.90
2022-11-28T14:12:18.904Z,50.30
2022-11-28T14:15:10.131Z,46.72
2022-11-28T14:18:55.219Z,53.13
2022-11-28T14:21:31.346Z,46.60
2022-11-28T14:24:20.157Z,46.33
2022-11-28T14:26:47.581Z,46.08
2022-11-28T14:29:21.682Z,53.20
2022-11-28T14:32:07.018Z,52.55
2022-11-28T14:34:46.036Z,45.85
2022-11-28T14:37:21.978Z,52.45
2022-11-28T14:39:50.279Z,53.40
2022-11-28T14:42:36.956Z,50.33
2022-11-28T14:45:38.573Z,52.20
2022-11-28T14:48:22.733Z,49.03
2022-11-28T14:50:59.279Z,49.47
2022-11-28T14:53:37.166Z,55.25
2022-11-28T14:56:23.343Z,52.72
2022-11-28T14:58:52.275Z,51.95
2022-11-28T15:01:37.110Z,54.53
2022-11-28T15:04:41.707Z,51.55
2022-11-28T15:07:18.384Z,51.90
2022-11-28T15:10:07.746Z,57.80
2022-11-28T15:12:45.558Z,61.80
2022-11-28T15:15:14.481Z,61.47
2022-11-28T15:17:47.084Z,54.22
2022-11-28T15:20:29.905Z,57.83
2022-11-28T15:22:59.701Z,60.00
2022-11-28T15:25:39.763Z,66.80
2022-11-28T15:28:14.518Z,64.25
2022-11-28T15:30:51.361Z,62.35
2022-11-28T15:33:20.460Z,60.88
2022-11-28T15:35:57.429Z,61.70
2022-11-28T15:38:25.910Z,61.13
2022-11-28T15:40:56.646Z,59.90
2022-11-28T15:43:25.011Z,63.77
2022-11-28T15:46:00.331Z,58.50
2022-11-28T15:48:40.027Z,67.95
2022-11-28T15:51:07.501Z,62.25
2022-11-28T15:53:40.668Z,59.25
2022-11-28T15:56:13.850Z,61.78
2022-11-28T15:58:42.232Z,62.03
2022-11-28T16:01:12.102Z,59.78
2022-11-28T16:03:47.773Z,63.70
2022-11-28T16:06:15.012Z,63.10
2022-11-28T16:08:53.141Z,60.78
2022-11-28T16:11:21.697Z,65.72
2022-11-28T16:13:49.312Z,63.03
2022-11-28T16:16:21.565Z,64.78
2022-11-28T16:19:01.977Z,59.08
2022-11-28T16:21:31.831Z,55.42
2022-11-28T16:24:03.612Z,57.88
2022-11-28T16:26:31.950Z,61.88
2022-11-28T16:29:05.653Z,56.05
2022-11-28T16:31:33.019Z,57.10
2022-11-28T16:34:00.687Z,62.63
2022-11-28T16:36:33.029Z,63.72
2022-11-28T16:39:11.749Z,61.97
2022-11-28T16:41:43.036Z,65.07
2022-11-28T16:44:14.942Z,62.97
2022-11-28T16:47:00.802Z,70.32
2022-11-28T16:49:35.524Z,62.22
2022-11-28T16:52:22.044Z,68.20
2022-11-28T16:54:55.939Z,64.90
2022-11-28T16:57:26.425Z,66.25
2022-11-28T16:59:55.430Z,58.92
2022-11-28T17:02:24.533Z,78.40
2022-11-28T17:05:08.943Z,74.60
2022-11-28T17:07:35.627Z,72.82
2022-11-28T17:10:02.383Z,73.95
2022-11-28T17:12:37.416Z,68.50
2022-11-28T17:15:04.443Z,77.68
2022-11-28T17:17:31.867Z,76.90
2022-11-28T17:20:09.648Z,67.45
2022-11-28T17:22:56.568Z,75.07
2022-11-28T17:25:26.624Z,71.30
2022-11-28T17:27:53.113Z,71.97
2022-11-28T17:30:29.133Z,80.85
2022-11-28T17:32:55.661Z,82.57
2022-11-28T17:35:27.864Z,80.32
2022-11-28T17:37:54.888Z,86.47
2022-11-28T17:40:33.612Z,75.15
2022-11-28T17:43:03.418Z,84.15
2022-11-28T17:45:33.868Z,80.82
2022-11-28T17:48:00.621Z,85.53
2022-11-28T17:50:27.263Z,76.20
2022-11-28T17:52:53.907Z,83.70
2022-11-28T17:55:20.729Z,83.30
2022-11-28T17:57:47.416Z,91.93
2022-11-28T18:00:15.218Z,87.25
2022-11-28T18:02:42.154Z,84.10
2022-11-28T18:05:09.354Z,89.68
2022-11-28T18:07:35.783Z,80.70
2022-11-28T18:10:02.538Z,85.00
2022-11-28T18:12:29.108Z,90.93
2022-11-28T18:14:55.807Z,82.53
2022-11-28T18:17:25.319Z,90.50
2022-11-28T18:19:57.160Z,94.93
2022-11-28T18:22:24.026Z,90.72
2022-11-28T18:24:50.565Z,101.00
2022-11-28T18:27:17.520Z,88.22
2022-11-28T18:29:44.327Z,90.57
2022-11-28T18:32:11.160Z,90.13
2022-11-28T18:34:37.810Z,94.38
2022-11-28T18:37:05.299Z,92.05
2022-11-28T18:39:33.099Z,106.00
2022-11-28T18:42:00.238Z,94.97
2022-11-28T18:44:26.745Z,96.18
2022-11-28T18:46:53.479Z,93.60
2022-11-28T18:49:20.460Z,98.30
2022-11-28T18:51:47.533Z,94.90
2022-11-28T18:54:20.549Z,97.78
2022-11-28T18:56:48.086Z,97.75
2022-11-28T18:59:14.668Z,101.55
2022-11-28T19:01:41.305Z,114.47
2022-11-28T19:04:11.042Z,100.05
2022-11-28T19:06:39.419Z,122.25
2022-11-28T19:09:09.353Z,95.85
2022-11-28T19:11:36.188Z,102.20
2022-11-28T19:14:02.673Z,109.75
2022-11-28T19:16:31.570Z,105.80
2022-11-28T19:18:58.934Z,106.75
2022-11-28T19:21:27.860Z,98.30
2022-11-28T19:23:55.911Z,97.53
2022-11-28T19:26:24.964Z,97.78
2022-11-28T19:28:51.958Z,97.80
2022-11-28T19:31:23.998Z,93.35
2022-11-28T19:34:00.578Z,106.95
2022-11-28T19:36:29.981Z,102.68
2022-11-28T19:38:56.403Z,95.85
2022-11-28T19:41:23.113Z,93.60
2022-11-28T19:43:50.402Z,93.07
2022-11-28T19:46:17.466Z,106.95
2022-11-28T19:48:44.187Z,95.40
2022-11-28T19:51:12.339Z,95.00
2022-11-28T19:53:41.669Z,91.22
2022-11-28T19:56:17.790Z,97.95
2022-11-28T19:58:45.030Z,96.72
2022-11-28T20:01:14.944Z,93.90
2022-11-28T20:03:42.559Z,86.20
2022-11-28T20:06:09.961Z,89.55
2022-11-28T20:08:36.826Z,91.95
2022-11-28T20:11:18.756Z,90.43
2022-11-28T20:13:46.317Z,90.20
2022-11-28T20:16:15.252Z,90.60
2022-11-28T20:18:43.200Z,92.85
2022-11-28T20:21:18.191Z,85.82
2022-11-28T20:23:53.970Z,85.20
2022-11-28T20:26:23.698Z,85.10
2022-11-28T20:28:50.427Z,87.20
2022-11-28T20:31:21.468Z,95.45
2022-11-28T20:33:49.024Z,88.75
2022-11-28T20:36:18.089Z,87.07
2022-11-28T20:38:44.978Z,82.13
2022-11-28T20:41:13.611Z,84.97
2022-11-28T20:43:41.290Z,84.35
2022-11-28T20:46:13.426Z,88.20
2022-11-28T20:48:40.108Z,93.35
2022-11-28T20:51:21.049Z,95.82
2022-11-28T20:53:48.592Z,64.05
2022-11-28T20:56:18.043Z,87.78
2022-11-28T20:58:44.924Z,89.18
2022-11-28T21:01:23.696Z,79.88
2022-11-28T21:03:51.102Z,77.20
2022-11-28T21:06:18.117Z,89.40
2022-11-28T21:08:44.659Z,88.72
2022-11-28T21:11:36.560Z,83.50
2022-11-28T21:14:04.885Z,84.63
2022-11-28T21:16:33.131Z,77.95
2022-11-28T21:19:04.315Z,81.30
2022-11-28T21:21:32.543Z,81.47
2022-11-28T21:24:02.635Z,88.15
2022-11-28T21:26:30.691Z,85.97
2022-11-28T21:29:01.715Z,85.43
2022-11-28T21:31:31.851Z,81.80
2022-11-28T21:33:59.175Z,82.53
2022-11-28T21:36:27.491Z,93.32
2022-11-28T21:38:56.636Z,86.97
2022-11-28T21:41:26.415Z,80.82
2022-11-28T21:43:54.164Z,82.68
2022-11-28T21:46:21.084Z,82.55
2022-11-28T21:48:47.706Z,82.22
2022-11-28T21:51:23.599Z,84.70
2022-11-28T21:53:50.831Z,83.90
2022-11-28T21:56:17.950Z,83.88
2022-11-28T21:58:44.398Z,80.72
2022-11-28T22:01:13.131Z,76.50
2022-11-28T22:03:41.060Z,83.95
2022-11-28T22:06:22.412Z,80.35
2022-11-28T22:08:49.321Z,84.03
2022-11-28T22:11:16.179Z,86.95
2022-11-28T22:13:45.150Z,80.07
2022-11-28T22:16:16.699Z,75.05
2022-11-28T22:21:49.948Z,85.53
2022-11-28T22:24:02.723Z,81.82
2022-11-28T22:26:29.223Z,78.25
2022-11-28T22:28:55.655Z,79.93
2022-11-28T22:31:22.610Z,79.30
2022-11-28T22:33:50.378Z,76.85
2022-11-28T22:36:18.961Z,73.13
2022-11-28T22:38:46.725Z,76.50
2022-11-28T22:41:23.295Z,77.75
2022-11-28T22:43:55.624Z,70.93
2022-11-28T22:46:22.846Z,82.13
2022-11-28T22:48:49.355Z,78.82
2022-11-28T22:51:20.007Z,80.65
2022-11-28T22:53:46.604Z,59.53
2022-11-28T22:56:15.476Z,76.22
2022-11-28T22:58:44.227Z,75.75
2022-11-28T23:01:13.172Z,76.18
2022-11-28T23:03:39.879Z,76.55
2022-11-28T23:06:08.713Z,76.70
2022-11-28T23:08:35.920Z,74.63
2022-11-28T23:11:11.272Z,78.28
2022-11-28T23:13:40.195Z,72.18
2022-11-28T23:16:09.518Z,78.15
2022-11-28T23:18:35.938Z,75.70
2022-11-28T23:21:02.405Z,73.28
2022-11-28T23:23:31.726Z,79.63
2022-11-28T23:26:05.071Z,74.72
2022-11-28T23:28:32.626Z,77.10
2022-11-28T23:31:07.369Z,71.97
2022-11-28T23:33:33.912Z,72.45
2022-11-28T23:36:00.435Z,85.55
2022-11-28T23:38:27.007Z,69.80
2022-11-28T23:40:57.082Z,78.18
2022-11-28T23:43:23.542Z,77.72
2022-11-28T23:45:50.163Z,81.22
2022-11-28T23:48:16.708Z,76.68
2022-11-28T23:50:43.262Z,71.05
2022-11-28T23:53:09.710Z,66.65
2022-11-28T23:55:36.110Z,74.60
2022-11-28T23:58:02.648Z,77.38
